createdAt,value
2023-04-10T00:00:00.608Z,4.3
2023-04-10T00:05:00.740Z,4.3
2023-04-10T00:10:00.610Z,4.3
2023-04-10T00:15:00.598Z,4.3
2023-04-10T00:20:00.598Z,4.2
2023-04-10T00:25:00.760Z,4.2
2023-04-10T00:30:00.602Z,4.2
2023-04-10T00:35:00.646Z,4.3
2023-04-10T00:40:00.616Z,4.3
2023-04-10T00:45:00.602Z,4.3
2023-04-10T00:50:00.638Z,4.3
2023-04-10T00:55:00.763Z,4.3
2023-04-10T01:00:00.691Z,4.3
2023-04-10T01:05:00.675Z,4.2
2023-04-10T01:10:00.743Z,4.2
2023-04-10T01:15:00.640Z,4.3
2023-04-10T01:20:00.831Z,4.2
2023-04-10T01:25:00.626Z,4.3
2023-04-10T01:30:00.654Z,4.3
2023-04-10T01:35:00.590Z,4.2
2023-04-10T01:45:00.771Z,4.2
2023-04-10T01:50:00.651Z,4.2
2023-04-10T01:55:00.685Z,4.3
2023-04-10T02:00:00.593Z,4.2
2023-04-10T02:05:00.773Z,4.2
2023-04-10T02:10:00.688Z,4.2
2023-04-10T02:15:00.645Z,4.2
2023-04-10T02:20:00.686Z,4.2
2023-04-10T02:25:00.657Z,4.2
2023-04-10T02:30:00.657Z,4.2
2023-04-10T02:35:00.637Z,4.2
2023-04-10T02:45:00.615Z,4.2
2023-04-10T02:50:00.592Z,4.2
2023-04-10T02:55:00.674Z,4.2
2023-04-10T03:00:00.621Z,4.2
2023-04-10T03:05:00.687Z,4.2
2023-04-10T03:10:00.667Z,4.2
2023-04-10T03:15:00.701Z,4.1
2023-04-10T03:20:00.650Z,4.1
2023-04-10T03:25:00.844Z,4.1
2023-04-10T03:30:00.635Z,4.1
2023-04-10T03:35:00.645Z,4.1
2023-04-10T03:40:00.558Z,4.2
2023-04-10T03:45:00.584Z,4.1
2023-04-10T03:50:00.599Z,4.2
2023-04-10T04:00:00.637Z,4.2
2023-04-10T04:05:00.633Z,4.2
2023-04-10T04:10:00.699Z,4.2
2023-04-10T04:15:00.645Z,4.2
2023-04-10T04:25:00.564Z,4.2
2023-04-10T04:30:00.640Z,4.2
2023-04-10T04:35:00.674Z,4.2
2023-04-10T04:40:00.569Z,4.2
2023-04-10T04:45:00.584Z,4.1
2023-04-10T04:50:00.570Z,4.2
2023-04-10T04:55:00.614Z,4.2
2023-04-10T05:00:00.700Z,4.3
2023-04-10T05:05:00.568Z,4.3
2023-04-10T05:10:00.687Z,4.2
2023-04-10T05:15:00.587Z,4.2
2023-04-10T05:20:00.708Z,4.2
2023-04-10T05:25:00.671Z,4.2
2023-04-10T05:30:00.698Z,4.2
2023-04-10T05:35:00.701Z,4.2
2023-04-10T05:40:00.572Z,4.3
2023-04-10T05:45:00.746Z,4.3
2023-04-10T05:50:00.672Z,4.4
2023-04-10T05:55:00.656Z,4.4
2023-04-10T06:00:00.625Z,4.5
2023-04-10T06:05:00.679Z,4.6
2023-04-10T06:10:00.574Z,4.6
2023-04-10T06:15:00.643Z,4.7
2023-04-10T06:20:00.559Z,4.8
2023-04-10T06:25:00.627Z,4.8
2023-04-10T06:35:00.699Z,5
2023-04-10T06:40:00.627Z,5.1
2023-04-10T06:45:00.703Z,5.3
2023-04-10T06:55:00.659Z,5.4
2023-04-10T07:00:00.716Z,5.4
2023-04-10T07:10:00.705Z,5.8
2023-04-10T07:20:00.603Z,5.9
2023-04-10T07:25:00.655Z,6.1
2023-04-10T07:30:00.603Z,6
2023-04-10T07:35:00.703Z,5.9
2023-04-10T07:40:00.600Z,6
2023-04-10T07:45:00.778Z,5.9
2023-04-10T07:50:00.601Z,5.9
2023-04-10T07:55:00.607Z,6
2023-04-10T08:00:00.608Z,5.9
2023-04-10T08:05:00.747Z,6
2023-04-10T08:10:00.724Z,5.9
2023-04-10T08:15:00.624Z,6
2023-04-10T08:20:00.709Z,5.9
2023-04-10T08:25:00.685Z,5.8
2023-04-10T08:30:00.605Z,6
2023-04-10T08:35:00.596Z,6
2023-04-10T08:40:00.644Z,5.9
2023-04-10T08:45:00.787Z,6.4
2023-04-10T08:50:00.789Z,6.3
2023-04-10T08:55:00.687Z,6.5
2023-04-10T09:00:04.393Z,6.4
2023-04-10T09:05:00.619Z,6.3
2023-04-10T09:10:00.633Z,6.4
2023-04-10T09:15:00.726Z,6.6
2023-04-10T09:20:00.554Z,6.5
2023-04-10T09:25:00.587Z,6.4
2023-04-10T09:30:00.692Z,6.6
2023-04-10T09:35:00.654Z,6.2
2023-04-10T09:40:00.568Z,6.5
2023-04-10T09:45:00.593Z,6.7
2023-04-10T10:00:00.664Z,6.6
2023-04-10T10:10:00.582Z,6.7
2023-04-10T10:20:00.584Z,6.8
2023-04-10T10:25:00.655Z,6.7
2023-04-10T10:30:02.848Z,6.6
2023-04-10T10:35:00.777Z,6.6
2023-04-10T10:40:00.698Z,6.7
2023-04-10T10:45:00.664Z,6.6
2023-04-10T10:50:00.691Z,6.4
2023-04-10T10:55:00.734Z,6.5
2023-04-10T11:00:00.709Z,6.5
2023-04-10T11:05:00.656Z,6.6
2023-04-10T11:10:00.670Z,6.4
2023-04-10T11:15:00.630Z,6.5
2023-04-10T11:20:00.836Z,6.6
2023-04-10T11:25:00.718Z,6.4
2023-04-10T11:30:00.593Z,6.8
2023-04-10T11:35:01.872Z,6.8
2023-04-10T11:40:00.604Z,6.8
2023-04-10T11:45:00.641Z,6.6
2023-04-10T11:50:00.661Z,6.5
2023-04-10T11:55:00.680Z,6.6
2023-04-10T12:00:00.625Z,6.7
2023-04-10T12:05:00.748Z,6.8
2023-04-10T12:10:00.632Z,6.7
2023-04-10T12:15:00.626Z,6.5
2023-04-10T12:20:00.796Z,6.4
2023-04-10T12:25:00.610Z,6.4
2023-04-10T12:30:00.602Z,6.2
2023-04-10T12:40:00.620Z,6.1
2023-04-10T12:45:00.664Z,6
2023-04-10T12:50:00.609Z,6
2023-04-10T12:55:00.680Z,6
2023-04-10T13:05:00.687Z,6.1
2023-04-10T13:10:00.608Z,6.2
2023-04-10T13:15:00.617Z,6.2
2023-04-10T13:25:00.693Z,6.3
2023-04-10T13:30:00.642Z,6.2
2023-04-10T13:45:00.619Z,6.1
2023-04-10T13:55:00.640Z,6.3
2023-04-10T14:00:00.596Z,6.4
2023-04-10T14:05:00.596Z,6.3
2023-04-10T14:10:00.718Z,6.2
2023-04-10T14:15:00.599Z,6.4
2023-04-10T14:20:00.613Z,6.2
2023-04-10T14:25:09.775Z,6.1
2023-04-10T14:30:00.643Z,6.1
2023-04-10T14:35:00.690Z,6.2
2023-04-10T14:40:00.615Z,6
2023-04-10T14:45:00.646Z,6.2
2023-04-10T14:50:00.667Z,6
2023-04-10T14:55:00.630Z,6.2
2023-04-10T15:00:00.866Z,6.2
2023-04-10T15:05:00.675Z,5.6
2023-04-10T15:10:00.666Z,5.7
2023-04-10T15:20:00.915Z,5.7
2023-04-10T15:25:00.539Z,5.6
2023-04-10T15:30:00.485Z,5.6
2023-04-10T15:35:00.486Z,5.6
2023-04-10T15:40:00.493Z,5.7
2023-04-10T15:45:00.505Z,5.6
2023-04-10T15:50:00.481Z,5.8
2023-04-10T15:55:00.502Z,5.7
2023-04-10T16:00:00.544Z,5.9
2023-04-10T16:05:00.569Z,5.9
2023-04-10T16:10:00.519Z,5.9
2023-04-10T16:15:00.483Z,6
2023-04-10T16:20:00.479Z,6
2023-04-10T16:25:01.032Z,6
2023-04-10T16:30:00.553Z,5.9
2023-04-10T16:35:00.480Z,6
2023-04-10T16:40:00.580Z,6
2023-04-10T16:45:00.485Z,6
2023-04-10T16:50:00.993Z,6.1
2023-04-10T16:55:00.853Z,6.2
2023-04-10T17:00:00.764Z,6.2
2023-04-10T17:05:00.458Z,6.1
2023-04-10T17:10:00.781Z,6.2
2023-04-10T17:15:00.495Z,6.4
2023-04-10T17:20:00.475Z,6.3
2023-04-10T17:25:00.494Z,6.3
2023-04-10T17:30:00.483Z,6.5
2023-04-10T17:35:00.491Z,6.6
2023-04-10T17:40:00.852Z,6.8
2023-04-10T17:45:00.576Z,6.6
2023-04-10T17:50:00.512Z,6.8
2023-04-10T17:55:00.473Z,6.7
2023-04-10T18:00:00.472Z,6.7
2023-04-10T18:05:00.493Z,6.6
2023-04-10T18:10:00.841Z,6.6
2023-04-10T18:20:00.482Z,6.6
2023-04-10T18:35:00.888Z,6.6
2023-04-10T18:40:06.467Z,6.7
2023-04-10T18:45:01.074Z,6.5
2023-04-10T18:50:00.550Z,6.5
2023-04-10T18:55:00.490Z,6.6
2023-04-10T19:00:00.518Z,6.6
2023-04-10T19:05:00.491Z,6.5
2023-04-10T19:10:00.454Z,6.5
2023-04-10T19:15:00.519Z,6.6
2023-04-10T19:20:00.495Z,6.6
2023-04-10T19:25:00.846Z,6.7
2023-04-10T19:30:00.816Z,6.6
2023-04-10T19:35:00.845Z,6.7
2023-04-10T19:40:00.809Z,6.6
2023-04-10T19:45:00.787Z,6.6
2023-04-10T19:50:01.000Z,6.7
2023-04-10T19:55:00.785Z,6.7
2023-04-10T20:00:00.871Z,6.8
2023-04-10T20:05:01.109Z,6.7
2023-04-10T20:10:00.916Z,6.8
2023-04-10T20:15:00.519Z,6.9
2023-04-10T20:20:00.489Z,6.8
2023-04-10T20:25:00.466Z,6.8
2023-04-10T20:30:00.486Z,6.8
2023-04-10T20:35:00.528Z,6.8
2023-04-10T20:40:00.529Z,6.8
2023-04-10T20:45:00.492Z,6.8
2023-04-10T20:50:00.476Z,6.8
2023-04-10T20:55:00.482Z,6.8
2023-04-10T21:00:00.896Z,6.9
2023-04-10T21:05:00.565Z,6.8
2023-04-10T21:10:00.483Z,6.8
2023-04-10T21:15:00.482Z,6.8
2023-04-10T21:20:00.494Z,6.8
2023-04-10T21:25:00.492Z,6.9
2023-04-10T21:30:00.478Z,6.8
2023-04-10T21:35:00.484Z,6.9
2023-04-10T21:40:00.478Z,6.9
2023-04-10T21:45:00.505Z,6.8
2023-04-10T21:50:00.494Z,6.8
2023-04-10T21:55:00.849Z,6.8
2023-04-10T22:00:00.686Z,6.8
2023-04-10T22:05:00.489Z,6.7
2023-04-10T22:10:00.517Z,6.8
2023-04-10T22:15:00.561Z,6.7
2023-04-10T22:20:00.481Z,6.6
2023-04-10T22:25:00.473Z,6.4
2023-04-10T22:30:03.603Z,6.3
2023-04-10T22:35:00.825Z,6.3
2023-04-10T22:40:00.562Z,6.4
2023-04-10T22:45:00.511Z,6.3
2023-04-10T22:50:00.526Z,6.3
2023-04-10T22:55:00.522Z,6.5
2023-04-10T23:00:00.801Z,6.4
2023-04-10T23:05:00.492Z,6.5
2023-04-10T23:10:00.481Z,6.5
2023-04-10T23:15:00.479Z,6.6
2023-04-10T23:20:00.491Z,6.6
2023-04-10T23:25:00.508Z,6.4
2023-04-10T23:30:00.513Z,6.5
2023-04-10T23:35:00.809Z,6.4
2023-04-10T23:40:00.569Z,6.2
2023-04-10T23:45:00.480Z,6.4
2023-04-10T23:50:00.474Z,6.4
2023-04-10T23:55:00.492Z,6.2
